This is the latest recevied weather packets stored in our database for station/object YN3ZBQ-13. If no packets are shown the sender has not sent any weather packets the latest 10 day(s).
| Time | Temp. | Humidity | Pressure | Rain* | Wind** | Luminosity | Snow |
|---|---|---|---|---|---|---|---|
| 1778348876 | 33.89° C | 35% | 1008 hPa | 0 mm | - | - | - |
| 1778348276 | 32.78° C | 38% | 1009 hPa | 0 mm | - | - | - |
| 1778347675 | 32.78° C | 38% | 1009 hPa | 0 mm | - | - | - |
| 1778347075 | 32.78° C | 38% | 1009 hPa | 0 mm | - | - | - |
| 1778346475 | 32.78° C | 38% | 1009 hPa | 0 mm | - | - | - |
| 1778345874 | 32.78° C | 36% | 1009 hPa | 0 mm | - | - | - |
| 1778345274 | 32.78° C | 36% | 1009 hPa | 0 mm | - | - | - |
| 1778344673 | 31.67° C | 42% | 1009 hPa | 0 mm | - | - | - |
| 1778344072 | 32.22° C | 42% | 1010 hPa | 0 mm | - | - | - |
| 1778343473 | 31.67° C | 42% | 1010 hPa | 0 mm | - | - | - |
| 1778342872 | 32.22° C | 42% | 1010 hPa | 0 mm | - | - | - |
| 1778342272 | 31.67° C | 42% | 1010 hPa | 0 mm | - | - | - |
| 1778341671 | 32.22° C | 42% | 1010 hPa | 0 mm | - | - | - |
| 1778341071 | 30° C | 51% | 1010 hPa | 0 mm | - | - | - |
| 1778340471 | 30.56° C | 51% | 1010 hPa | 0 mm | - | - | - |
| 1778339870 | 31.11° C | 51% | 1010 hPa | 0 mm | - | - | - |
| 1778339270 | 31.11° C | 51% | 1010 hPa | 0 mm | - | - | - |
| 1778338670 | 31.67° C | 51% | 1010 hPa | 0 mm | - | - | - |
| 1778338070 | 27.78° C | 61% | 1010 hPa | 0 mm | - | - | - |
| 1778337469 | 27.78° C | 61% | 1010 hPa | 0 mm | - | - | - |
| 1778336869 | 28.33° C | 61% | 1010 hPa | 0 mm | - | - | - |
| 1778336269 | 28.33° C | 61% | 1010 hPa | 0 mm | - | - | - |
| 1778335668 | 28.89° C | 61% | 1010 hPa | 0 mm | - | - | - |
| 1778335068 | 27.78° C | 61% | 1010 hPa | 0 mm | - | - | - |
| 1778334468 | 28.33° C | 61% | 1010 hPa | 0 mm | - | - | - |
* Rain latest hour (hover to see other rain measurements)
** Current wind speed in m/s (hover to see current wind gust speed)